createdAt,value
2023-01-18T00:01:01.289Z,80.13
2023-01-18T00:03:27.882Z,79.80
2023-01-18T00:05:54.657Z,80.07
2023-01-18T00:08:21.217Z,79.90
2023-01-18T00:10:47.780Z,79.91
2023-01-18T00:13:14.301Z,79.91
2023-01-18T00:15:40.879Z,80.01
2023-01-18T00:18:07.400Z,79.84
2023-01-18T00:20:33.992Z,79.76
2023-01-18T00:23:01.869Z,79.84
2023-01-18T00:25:28.613Z,79.94
2023-01-18T00:27:55.422Z,80.19
2023-01-18T00:30:24.237Z,80.29
2023-01-18T00:32:55.382Z,80.21
2023-01-18T00:35:22.334Z,80.38
2023-01-18T00:37:49.277Z,80.73
2023-01-18T00:40:15.835Z,80.66
2023-01-18T00:43:01.024Z,80.56
2023-01-18T00:45:27.876Z,80.60
2023-01-18T00:47:54.424Z,80.55
2023-01-18T00:50:22.525Z,80.04
2023-01-18T00:52:49.784Z,79.85
2023-01-18T00:55:16.918Z,80.59
2023-01-18T00:57:43.470Z,80.21
2023-01-18T01:00:11.311Z,80.01
2023-01-18T01:02:41.618Z,80.18
2023-01-18T01:05:36.991Z,80.43
2023-01-18T01:08:03.921Z,81.20
2023-01-18T01:10:30.507Z,80.62
2023-01-18T01:13:15.882Z,80.35
2023-01-18T01:16:01.122Z,80.54
2023-01-18T01:18:46.434Z,80.53
2023-01-18T01:21:31.716Z,80.17
2023-01-18T01:24:16.752Z,80.08
2023-01-18T01:26:43.794Z,79.71
2023-01-18T01:29:10.346Z,79.56
2023-01-18T01:31:38.859Z,80.12
2023-01-18T01:34:05.400Z,80.31
2023-01-18T01:36:31.933Z,80.22
2023-01-18T01:38:58.566Z,79.88
2023-01-18T01:41:26.852Z,80.12
2023-01-18T01:44:04.776Z,79.94
2023-01-18T01:46:50.145Z,79.96
2023-01-18T01:49:24.130Z,79.93
2023-01-18T01:51:52.098Z,79.97
2023-01-18T01:54:21.341Z,79.97
2023-01-18T01:56:47.919Z,80.01
2023-01-18T01:59:14.782Z,79.95
2023-01-18T02:01:44.065Z,80.19
2023-01-18T02:04:10.693Z,80.23
2023-01-18T02:06:38.015Z,80.54
2023-01-18T02:09:08.658Z,80.23
2023-01-18T02:11:35.414Z,79.96
2023-01-18T02:14:03.405Z,80.43
2023-01-18T02:16:34.216Z,80.48
2023-01-18T02:19:19.824Z,80.32
2023-01-18T02:22:09.012Z,80.30
2023-01-18T02:24:40.054Z,80.21
2023-01-18T02:27:18.334Z,80.15
2023-01-18T02:29:57.077Z,80.62
2023-01-18T02:32:32.832Z,80.54
2023-01-18T02:35:08.143Z,80.34
2023-01-18T02:37:53.958Z,80.22
2023-01-18T02:40:32.087Z,80.75
2023-01-18T02:43:17.938Z,80.39
2023-01-18T02:46:04.404Z,80.74
2023-01-18T02:48:32.525Z,80.26
2023-01-18T02:50:59.061Z,80.95
2023-01-18T02:53:25.609Z,80.68
2023-01-18T02:55:54.261Z,80.72
2023-01-18T02:58:23.881Z,80.65
2023-01-18T03:00:55.231Z,80.40
2023-01-18T03:03:22.133Z,80.71
2023-01-18T03:05:48.663Z,80.37
2023-01-18T03:08:33.334Z,80.32
2023-01-18T03:11:00.941Z,80.25
2023-01-18T03:13:48.334Z,80.20
2023-01-18T03:16:22.883Z,80.97
2023-01-18T03:19:01.741Z,81.23
2023-01-18T03:21:30.269Z,80.79
2023-01-18T03:23:56.807Z,80.71
2023-01-18T03:26:23.383Z,80.71
2023-01-18T03:29:10.573Z,80.55
2023-01-18T03:32:03.443Z,80.11
2023-01-18T03:34:39.207Z,80.82
2023-01-18T03:37:08.296Z,80.38
2023-01-18T03:39:45.297Z,80.64
2023-01-18T03:42:19.904Z,81.19
2023-01-18T03:44:48.085Z,81.39
2023-01-18T03:47:14.602Z,81.73
2023-01-18T03:49:41.156Z,81.50
2023-01-18T03:52:17.106Z,81.20
2023-01-18T03:54:56.307Z,80.93
2023-01-18T03:57:32.325Z,81.04
2023-01-18T03:59:59.183Z,81.06
2023-01-18T04:02:26.332Z,80.44
2023-01-18T04:04:57.592Z,81.09
2023-01-18T04:07:25.133Z,80.76
2023-01-18T04:09:51.864Z,80.85
2023-01-18T04:12:18.601Z,80.84
2023-01-18T04:14:45.132Z,80.76
2023-01-18T04:17:11.673Z,80.71
2023-01-18T04:19:40.591Z,81.41
2023-01-18T04:22:09.693Z,81.82
2023-01-18T04:24:36.433Z,81.63
2023-01-18T04:27:03.200Z,82.12
2023-01-18T04:29:29.764Z,81.83
2023-01-18T04:31:56.317Z,82.16
2023-01-18T04:34:25.104Z,81.96
2023-01-18T04:36:51.853Z,81.78
2023-01-18T04:39:18.732Z,81.18
2023-01-18T04:41:45.369Z,81.29
2023-01-18T04:44:11.900Z,81.37
2023-01-18T04:46:38.669Z,81.31
2023-01-18T04:49:05.976Z,81.63
2023-01-18T04:51:32.692Z,82.09
2023-01-18T04:53:59.720Z,82.38
2023-01-18T04:56:26.297Z,81.94
2023-01-18T04:58:54.110Z,81.62
2023-01-18T05:01:20.774Z,82.30
2023-01-18T05:03:47.469Z,82.70
2023-01-18T05:06:15.272Z,82.39
2023-01-18T05:08:42.583Z,81.58
2023-01-18T05:11:10.095Z,81.49
2023-01-18T05:13:36.670Z,82.12
2023-01-18T05:16:06.003Z,81.52
2023-01-18T05:18:32.836Z,81.71
2023-01-18T05:20:59.374Z,81.70
2023-01-18T05:23:25.941Z,82.50
2023-01-18T05:25:53.266Z,82.03
2023-01-18T05:28:19.813Z,82.12
2023-01-18T05:30:48.156Z,81.93
2023-01-18T05:33:14.732Z,81.80
2023-01-18T05:35:41.281Z,81.45
2023-01-18T05:38:07.848Z,81.72
2023-01-18T05:40:34.393Z,81.72
2023-01-18T05:43:01.214Z,81.85
2023-01-18T05:45:27.934Z,81.83
2023-01-18T05:47:54.662Z,81.57
2023-01-18T05:50:21.209Z,81.76
2023-01-18T05:52:47.798Z,82.30
2023-01-18T05:55:15.936Z,81.82
2023-01-18T05:57:42.810Z,81.63
2023-01-18T06:00:09.775Z,81.64
2023-01-18T06:02:39.118Z,81.18
2023-01-18T06:05:05.897Z,81.63
2023-01-18T06:07:32.465Z,81.25
2023-01-18T06:09:59.274Z,81.41
2023-01-18T06:12:25.814Z,81.35
2023-01-18T06:14:52.370Z,81.46
2023-01-18T06:17:19.034Z,81.32
2023-01-18T06:19:45.737Z,81.28
2023-01-18T06:22:12.691Z,81.01
2023-01-18T06:24:39.215Z,80.57
2023-01-18T06:27:05.771Z,80.68
2023-01-18T06:29:32.415Z,80.94
2023-01-18T06:31:58.976Z,80.87
2023-01-18T06:34:25.696Z,81.64
2023-01-18T06:36:52.245Z,80.92
2023-01-18T06:39:18.887Z,81.07
2023-01-18T06:41:45.468Z,80.70
2023-01-18T06:44:12.007Z,80.90
2023-01-18T06:46:38.579Z,81.03
2023-01-18T06:49:05.172Z,81.75
2023-01-18T06:51:31.767Z,81.82
2023-01-18T06:53:58.731Z,81.77
2023-01-18T06:56:26.913Z,81.79
2023-01-18T06:58:55.892Z,81.69
2023-01-18T07:01:22.497Z,81.51
2023-01-18T07:03:49.145Z,82.19
2023-01-18T07:06:18.827Z,81.67
2023-01-18T07:08:45.391Z,82.22
2023-01-18T07:11:15.096Z,82.58
2023-01-18T07:13:44.160Z,82.02
2023-01-18T07:16:18.174Z,81.51
2023-01-18T07:18:46.943Z,82.10
2023-01-18T07:21:15.270Z,81.88
2023-01-18T07:23:42.437Z,81.90
2023-01-18T07:26:10.024Z,81.93
2023-01-18T07:28:36.963Z,82.24
2023-01-18T07:31:04.076Z,82.05
2023-01-18T07:33:30.802Z,82.01
2023-01-18T07:35:58.285Z,82.06
2023-01-18T07:38:25.011Z,81.84
2023-01-18T07:40:57.639Z,82.47
2023-01-18T07:43:24.668Z,82.68
2023-01-18T07:45:54.564Z,82.31
2023-01-18T07:48:22.011Z,82.34
2023-01-18T07:51:01.912Z,82.57
2023-01-18T07:53:31.240Z,82.42
2023-01-18T07:56:01.214Z,82.78
2023-01-18T07:58:28.009Z,82.38
2023-01-18T08:00:54.588Z,82.53
2023-01-18T08:03:21.512Z,83.00
2023-01-18T08:05:48.242Z,82.75
2023-01-18T08:08:18.473Z,82.51
2023-01-18T08:10:45.147Z,82.56
2023-01-18T08:13:11.762Z,82.53
2023-01-18T08:15:38.561Z,82.57
2023-01-18T08:18:05.483Z,82.57
2023-01-18T08:20:32.287Z,82.32
2023-01-18T08:22:59.683Z,82.59
2023-01-18T08:25:30.203Z,81.95
2023-01-18T08:28:00.257Z,81.51
2023-01-18T08:30:28.359Z,81.86
2023-01-18T08:32:56.188Z,82.01
2023-01-18T08:35:23.888Z,81.94
2023-01-18T08:37:53.299Z,82.60
2023-01-18T08:40:20.887Z,82.80
2023-01-18T08:42:47.432Z,82.31
2023-01-18T08:45:14.339Z,81.82
2023-01-18T08:47:43.660Z,81.86
2023-01-18T08:50:10.564Z,82.16
2023-01-18T08:52:37.121Z,82.14
2023-01-18T08:55:04.706Z,82.43
2023-01-18T08:57:31.380Z,81.58
2023-01-18T08:59:58.174Z,81.75
2023-01-18T09:02:25.057Z,81.49
2023-01-18T09:04:52.810Z,82.53
2023-01-18T09:07:19.388Z,81.81
2023-01-18T09:09:46.203Z,81.48
2023-01-18T09:12:12.978Z,81.83
2023-01-18T09:14:40.227Z,81.02
2023-01-18T09:17:06.788Z,81.89
2023-01-18T09:19:33.763Z,81.03
2023-01-18T09:22:00.924Z,81.34
2023-01-18T09:24:27.498Z,80.80
2023-01-18T09:26:54.186Z,81.28
2023-01-18T09:29:20.935Z,81.57
2023-01-18T09:31:49.343Z,81.45
2023-01-18T09:34:19.754Z,81.95
2023-01-18T09:36:47.259Z,81.62
2023-01-18T09:39:14.144Z,81.51
2023-01-18T09:41:43.019Z,81.29
2023-01-18T09:44:21.730Z,81.53
2023-01-18T09:46:51.841Z,81.92
2023-01-18T09:49:21.296Z,80.97
2023-01-18T09:52:00.574Z,81.17
2023-01-18T09:54:30.450Z,81.26
2023-01-18T09:57:16.563Z,81.61
2023-01-18T09:59:46.367Z,82.08
2023-01-18T10:02:20.052Z,81.70
2023-01-18T10:04:48.003Z,82.49
2023-01-18T10:07:18.144Z,81.64
2023-01-18T10:09:49.829Z,82.08
2023-01-18T10:12:31.798Z,82.38
2023-01-18T10:15:01.387Z,81.76
2023-01-18T10:17:38.356Z,82.34
2023-01-18T10:20:20.353Z,81.99
2023-01-18T10:22:49.464Z,81.24
2023-01-18T10:25:19.405Z,81.51
2023-01-18T10:27:50.088Z,81.42
2023-01-18T10:30:39.688Z,81.26
2023-01-18T10:33:22.093Z,80.97
2023-01-18T10:35:50.110Z,81.27
2023-01-18T10:38:18.051Z,81.12
2023-01-18T10:40:46.538Z,80.86
2023-01-18T10:43:15.635Z,81.00
2023-01-18T10:45:42.279Z,81.37
2023-01-18T10:48:17.905Z,81.39
2023-01-18T10:50:45.765Z,81.46
2023-01-18T10:53:24.311Z,82.06
2023-01-18T10:55:54.282Z,81.64
2023-01-18T10:58:24.422Z,81.30
2023-01-18T11:00:55.217Z,80.54
2023-01-18T11:03:22.828Z,81.19
2023-01-18T11:05:49.426Z,81.46
2023-01-18T11:08:21.570Z,80.80
2023-01-18T11:10:58.193Z,81.06
2023-01-18T11:13:25.699Z,81.25
2023-01-18T11:16:00.298Z,80.79
2023-01-18T11:18:33.205Z,80.89
2023-01-18T11:21:00.005Z,80.64
2023-01-18T11:23:30.531Z,80.49
2023-01-18T11:25:57.242Z,80.54
2023-01-18T11:28:23.827Z,80.62
2023-01-18T11:30:57.565Z,80.49
2023-01-18T11:33:25.793Z,79.74
2023-01-18T11:35:56.714Z,80.76
2023-01-18T11:38:26.617Z,81.38
2023-01-18T11:41:11.993Z,80.82
2023-01-18T11:43:39.660Z,81.42
2023-01-18T11:46:24.808Z,81.06
2023-01-18T11:48:58.951Z,81.99
2023-01-18T11:51:25.464Z,81.60
2023-01-18T11:53:54.806Z,81.09
2023-01-18T11:56:27.647Z,80.97
2023-01-18T11:58:54.265Z,80.84
2023-01-18T12:01:41.522Z,80.89
2023-01-18T12:04:08.142Z,80.87
2023-01-18T12:06:54.612Z,80.02
2023-01-18T12:09:32.655Z,80.93
2023-01-18T12:12:18.223Z,81.00
2023-01-18T12:14:49.159Z,80.74
2023-01-18T12:17:25.042Z,80.78
2023-01-18T12:19:58.712Z,80.97
2023-01-18T12:22:36.539Z,80.79
2023-01-18T12:25:21.399Z,80.48
2023-01-18T12:28:07.572Z,81.05
2023-01-18T12:30:34.257Z,80.90
2023-01-18T12:33:05.308Z,81.24
2023-01-18T12:35:42.421Z,80.76
2023-01-18T12:38:08.933Z,80.57
2023-01-18T12:40:44.262Z,80.85
2023-01-18T12:43:11.248Z,80.23
2023-01-18T12:45:50.074Z,80.10
2023-01-18T12:48:16.840Z,79.78
2023-01-18T12:50:43.777Z,79.72
2023-01-18T12:53:22.578Z,79.75
2023-01-18T12:55:49.967Z,79.39
2023-01-18T12:58:18.726Z,79.71
2023-01-18T13:00:47.187Z,80.00
2023-01-18T13:03:14.801Z,78.92
2023-01-18T13:05:52.681Z,78.94
2023-01-18T13:08:24.002Z,78.52
2023-01-18T13:10:50.671Z,78.36
2023-01-18T13:13:18.974Z,78.77
2023-01-18T13:15:47.809Z,79.65
2023-01-18T13:18:15.998Z,78.84
2023-01-18T13:20:58.424Z,78.56
2023-01-18T13:23:27.455Z,77.86
2023-01-18T13:26:01.080Z,78.28
2023-01-18T13:28:27.682Z,78.49
2023-01-18T13:30:56.710Z,78.68
2023-01-18T13:33:24.187Z,78.93
2023-01-18T13:36:21.624Z,78.38
2023-01-18T13:38:52.372Z,77.95
2023-01-18T13:41:25.881Z,78.24
2023-01-18T13:43:53.420Z,78.71
2023-01-18T13:46:21.085Z,78.57
2023-01-18T13:48:47.693Z,78.56
2023-01-18T13:51:34.500Z,79.03
2023-01-18T13:54:01.076Z,78.89
2023-01-18T13:56:28.491Z,78.56
2023-01-18T13:58:59.076Z,78.36
2023-01-18T14:01:26.724Z,78.17
2023-01-18T14:03:54.267Z,78.32
2023-01-18T14:06:25.717Z,78.59
2023-01-18T14:08:53.322Z,78.13
2023-01-18T14:11:27.173Z,78.08
2023-01-18T14:13:53.693Z,78.13
2023-01-18T14:16:24.234Z,78.53
2023-01-18T14:18:52.179Z,78.13
2023-01-18T14:21:22.297Z,78.74
2023-01-18T14:23:57.823Z,78.82
2023-01-18T14:26:26.633Z,78.94
2023-01-18T14:28:54.355Z,78.94
2023-01-18T14:31:23.057Z,78.72
2023-01-18T14:33:50.101Z,78.65
2023-01-18T14:36:20.848Z,78.82
2023-01-18T14:38:47.480Z,78.28
2023-01-18T14:41:16.988Z,78.62
2023-01-18T14:43:49.569Z,78.17
2023-01-18T14:46:16.844Z,78.57
2023-01-18T14:48:46.611Z,78.54
2023-01-18T14:51:17.195Z,78.69
2023-01-18T14:53:49.457Z,78.71
2023-01-18T14:56:16.196Z,78.03
2023-01-18T14:58:43.771Z,78.28
2023-01-18T15:01:43.955Z,77.88
2023-01-18T15:04:21.318Z,78.53
2023-01-18T15:06:49.018Z,78.32
2023-01-18T15:09:15.629Z,78.69
2023-01-18T15:11:42.266Z,78.29
2023-01-18T15:14:17.804Z,78.09
2023-01-18T15:16:44.812Z,78.05
2023-01-18T15:19:16.916Z,78.57
2023-01-18T15:21:43.683Z,78.89
2023-01-18T15:24:12.566Z,78.98
2023-01-18T15:26:46.908Z,78.86
2023-01-18T15:29:13.609Z,78.93
2023-01-18T15:31:53.573Z,78.93
2023-01-18T15:34:30.412Z,78.99
2023-01-18T15:36:57.615Z,78.78
2023-01-18T15:39:24.263Z,78.42
2023-01-18T15:41:50.801Z,78.51
2023-01-18T15:44:32.444Z,78.65
2023-01-18T15:46:58.980Z,78.59
2023-01-18T15:49:25.604Z,78.95
2023-01-18T15:51:57.213Z,79.10
2023-01-18T15:54:27.546Z,79.35
2023-01-18T15:56:56.204Z,79.87
2023-01-18T15:59:23.376Z,79.59
2023-01-18T16:02:08.749Z,79.69
2023-01-18T16:04:35.531Z,79.46
2023-01-18T16:07:22.034Z,79.25
2023-01-18T16:09:48.607Z,79.28
2023-01-18T16:12:32.178Z,79.29
2023-01-18T16:14:58.844Z,78.65
2023-01-18T16:17:27.334Z,78.33
2023-01-18T16:19:54.440Z,78.16
2023-01-18T16:22:22.370Z,77.69
2023-01-18T16:24:50.894Z,77.89
2023-01-18T16:27:19.161Z,77.93
2023-01-18T16:29:46.660Z,78.14
2023-01-18T16:32:27.706Z,79.02
2023-01-18T16:34:58.279Z,78.70
2023-01-18T16:37:24.922Z,78.71
2023-01-18T16:39:51.706Z,78.81
2023-01-18T16:42:19.918Z,79.11
2023-01-18T17:04:27.984Z,78.55
2023-01-18T17:07:00.410Z,78.05
2023-01-18T17:09:47.930Z,78.35
2023-01-18T17:12:18.145Z,78.19
2023-01-18T17:14:44.717Z,78.12
2023-01-18T17:17:11.516Z,78.10
2023-01-18T17:19:38.357Z,78.35
2023-01-18T17:22:07.587Z,78.25
2023-01-18T17:24:34.132Z,77.56
2023-01-18T17:27:01.382Z,77.83
2023-01-18T17:29:28.007Z,77.58
2023-01-18T17:31:54.616Z,77.37
2023-01-18T17:34:27.144Z,77.24
2023-01-18T17:36:55.217Z,77.47
2023-01-18T17:39:24.976Z,77.47
2023-01-18T17:41:58.671Z,77.05
2023-01-18T17:44:36.846Z,76.64
2023-01-18T17:47:03.917Z,76.92
2023-01-18T17:49:32.501Z,76.71
2023-01-18T17:51:59.181Z,76.65
2023-01-18T17:54:26.189Z,76.65
2023-01-18T17:56:53.493Z,77.03
2023-01-18T17:59:20.337Z,76.75
2023-01-18T18:01:49.293Z,76.45
2023-01-18T18:04:16.253Z,76.58
2023-01-18T18:06:49.725Z,76.67
2023-01-18T18:09:20.543Z,77.01
2023-01-18T18:11:47.434Z,77.59
2023-01-18T18:14:14.430Z,77.25
2023-01-18T18:16:43.444Z,77.52
2023-01-18T18:19:13.205Z,77.33
2023-01-18T18:21:39.784Z,77.24
2023-01-18T18:24:06.468Z,76.91
2023-01-18T18:26:33.171Z,77.22
2023-01-18T18:29:00.273Z,77.49
2023-01-18T18:31:26.891Z,77.19
2023-01-18T18:33:53.505Z,77.67
2023-01-18T18:36:21.364Z,77.91
2023-01-18T18:38:47.905Z,77.45
2023-01-18T18:41:14.441Z,78.00
2023-01-18T18:43:40.992Z,77.65
2023-01-18T18:46:07.608Z,77.40
2023-01-18T18:48:34.328Z,77.45
2023-01-18T18:51:00.899Z,77.69
2023-01-18T18:53:37.524Z,77.16
2023-01-18T18:56:07.227Z,76.71
2023-01-18T18:58:34.198Z,77.16
2023-01-18T19:01:01.016Z,76.95
2023-01-18T19:03:27.696Z,77.32
2023-01-18T19:05:54.304Z,76.69
2023-01-18T19:08:20.918Z,76.45
2023-01-18T19:10:50.929Z,76.65
2023-01-18T19:13:18.848Z,76.09
2023-01-18T19:15:48.921Z,75.97
2023-01-18T19:18:16.995Z,75.90
2023-01-18T19:20:44.157Z,76.42
2023-01-18T19:23:10.983Z,76.62
2023-01-18T19:25:38.140Z,76.44
2023-01-18T19:28:04.913Z,76.64
2023-01-18T19:30:33.436Z,76.91
2023-01-18T19:33:00.380Z,76.78
2023-01-18T19:35:27.158Z,77.08
2023-01-18T19:37:53.878Z,76.80
2023-01-18T19:40:21.053Z,76.37
2023-01-18T19:42:59.823Z,76.48
2023-01-18T19:45:28.591Z,76.60
2023-01-18T19:47:55.972Z,76.93
2023-01-18T19:50:22.590Z,77.30
2023-01-18T19:52:51.137Z,77.12
2023-01-18T19:55:17.813Z,76.86
2023-01-18T19:57:44.814Z,77.13
2023-01-18T20:00:16.695Z,77.63
2023-01-18T20:02:43.640Z,77.11
2023-01-18T20:05:10.529Z,77.25
2023-01-18T20:07:42.497Z,76.93
2023-01-18T20:10:20.766Z,76.84
2023-01-18T20:12:48.282Z,76.64
2023-01-18T20:15:19.152Z,76.93
2023-01-18T20:17:45.756Z,76.44
2023-01-18T20:20:16.134Z,76.40
2023-01-18T20:22:45.917Z,76.24
2023-01-18T20:25:28.459Z,76.39
2023-01-18T20:27:57.929Z,76.90
2023-01-18T20:30:25.873Z,76.99
2023-01-18T20:32:52.749Z,76.85
2023-01-18T20:35:20.229Z,76.71
2023-01-18T20:37:46.897Z,76.95
2023-01-18T20:40:16.606Z,77.41
2023-01-18T20:42:45.728Z,77.39
2023-01-18T20:45:15.704Z,77.38
2023-01-18T20:47:42.838Z,77.45
2023-01-18T20:50:09.870Z,77.40
2023-01-18T20:52:36.418Z,78.05
2023-01-18T20:55:03.162Z,76.92
2023-01-18T20:57:30.576Z,76.98
2023-01-18T20:59:57.438Z,76.47
2023-01-18T21:02:24.630Z,76.42
2023-01-18T21:04:51.251Z,76.90
2023-01-18T21:07:17.813Z,76.17
2023-01-18T21:09:44.431Z,75.90
2023-01-18T21:12:10.982Z,75.97
2023-01-18T21:14:37.543Z,75.84
2023-01-18T21:17:04.110Z,75.86
2023-01-18T21:19:30.836Z,75.59
2023-01-18T21:21:57.403Z,75.67
2023-01-18T21:24:24.118Z,75.79
2023-01-18T21:26:51.037Z,76.00
2023-01-18T21:29:17.683Z,75.79
2023-01-18T21:31:44.383Z,75.52
2023-01-18T21:34:11.085Z,75.65
2023-01-18T21:36:37.660Z,75.39
2023-01-18T21:39:04.665Z,75.43
2023-01-18T21:41:49.649Z,76.01
2023-01-18T21:44:34.793Z,76.33
2023-01-18T21:47:01.374Z,76.34
2023-01-18T21:50:15.678Z,76.26
2023-01-18T21:52:51.999Z,75.78
2023-01-18T21:55:18.815Z,76.42
2023-01-18T21:57:45.392Z,75.82
2023-01-18T22:00:12.171Z,76.19
2023-01-18T22:02:38.863Z,76.02
2023-01-18T22:05:05.812Z,76.37
2023-01-18T22:07:33.143Z,76.21
2023-01-18T22:10:04.971Z,76.11
2023-01-18T22:12:35.293Z,76.04
2023-01-18T22:15:03.119Z,75.80
2023-01-18T22:17:29.954Z,75.58
2023-01-18T22:19:57.258Z,75.45
2023-01-18T22:22:23.859Z,75.93
2023-01-18T22:24:50.553Z,75.86
2023-01-18T22:27:17.082Z,75.94
2023-01-18T22:29:43.649Z,76.25
2023-01-18T22:32:10.226Z,76.88
2023-01-18T22:34:36.813Z,76.63
2023-01-18T22:37:03.643Z,76.38
2023-01-18T22:39:30.207Z,75.99
2023-01-18T22:41:56.782Z,75.65
2023-01-18T22:44:23.334Z,75.81
2023-01-18T22:46:49.904Z,75.85
2023-01-18T22:49:17.032Z,75.95
2023-01-18T22:51:44.267Z,75.64
2023-01-18T22:54:10.852Z,75.86
2023-01-18T22:56:37.513Z,75.87
2023-01-18T22:59:04.125Z,75.71
2023-01-18T23:01:31.867Z,75.90
2023-01-18T23:03:59.359Z,75.88
2023-01-18T23:06:26.528Z,75.49
2023-01-18T23:08:54.446Z,75.60
2023-01-18T23:11:22.012Z,75.45
2023-01-18T23:14:09.609Z,76.21
2023-01-18T23:16:54.894Z,76.11
2023-01-18T23:19:21.673Z,75.87
2023-01-18T23:21:48.240Z,75.69
2023-01-18T23:24:14.779Z,75.97
2023-01-18T23:26:45.021Z,75.68
2023-01-18T23:29:11.680Z,76.07
2023-01-18T23:31:38.305Z,75.98
2023-01-18T23:34:08.469Z,76.25
2023-01-18T23:36:35.041Z,76.20
2023-01-18T23:39:20.665Z,76.19
2023-01-18T23:42:06.999Z,76.25
2023-01-18T23:44:52.440Z,76.79
2023-01-18T23:47:40.850Z,76.57
2023-01-18T23:50:25.907Z,76.97
2023-01-18T23:53:11.265Z,76.45
2023-01-18T23:55:43.853Z,76.92
2023-01-18T23:58:10.424Z,76.77
